EDW12F EDDF-EDDH
Flight info
| Callsign | EDW12F |
|---|---|
| Flight time | 0h 48m |
| Altitude | 33000 |
| Route | MARUN3W MARUN Y150 TOLGI DCT SAS/N0449F320 P605 NOLGO NOLGO6A |
| Aircraft | A320/M-SDE3FGHIRWY/LB1 |
Departure
| Time | 2026-05-07 12:08 |
|---|---|
| Airport | Frankfurt Main Airport (EDDF) |
Arrival
| Time | 2026-05-07 12:56 |
|---|---|
| Airport | Hamburg Helmut Schmidt Airport (EDDH) |
| Time | Latitude | Longitude | Altitude | Speed | Heading |
|---|---|---|---|---|---|
| 2026-05-07 12:08 | 49.95475 | 8.33730 | 10581 ft | 289 kts | 336° |
| 2026-05-07 12:08 | 49.97403 | 8.32485 | 10794 ft | 312 kts | 336° |
| 2026-05-07 12:08 | 49.99484 | 8.31140 | 10989 ft | 334 kts | 336° |
| 2026-05-07 12:09 | 50.01653 | 8.29791 | 11485 ft | 345 kts | 341° |
| 2026-05-07 12:09 | 50.04014 | 8.28997 | 12164 ft | 351 kts | 353° |
| 2026-05-07 12:09 | 50.06471 | 8.29014 | 12855 ft | 357 kts | 6° |
| 2026-05-07 12:09 | 50.08904 | 8.29880 | 13551 ft | 362 kts | 17° |
| 2026-05-07 12:10 | 50.11305 | 8.31154 | 14202 ft | 365 kts | 17° |
| 2026-05-07 12:10 | 50.13725 | 8.32428 | 14818 ft | 369 kts | 17° |
| 2026-05-07 12:10 | 50.16166 | 8.33707 | 15425 ft | 372 kts | 17° |
| 2026-05-07 12:10 | 50.18628 | 8.34995 | 16035 ft | 375 kts | 17° |
| 2026-05-07 12:11 | 50.21110 | 8.36292 | 16636 ft | 378 kts | 17° |
| 2026-05-07 12:11 | 50.23618 | 8.37610 | 17233 ft | 382 kts | 17° |
| 2026-05-07 12:11 | 50.26148 | 8.38943 | 17861 ft | 386 kts | 17° |
| 2026-05-07 12:11 | 50.28706 | 8.40294 | 18433 ft | 390 kts | 18° |
| 2026-05-07 12:12 | 50.31283 | 8.41666 | 18955 ft | 393 kts | 17° |
| 2026-05-07 12:12 | 50.33876 | 8.43072 | 19471 ft | 396 kts | 18° |
| 2026-05-07 12:12 | 50.36484 | 8.44504 | 20022 ft | 398 kts | 18° |
| 2026-05-07 12:12 | 50.39107 | 8.45950 | 20523 ft | 401 kts | 18° |
| 2026-05-07 12:13 | 50.41715 | 8.47384 | 21015 ft | 404 kts | 19° |
| 2026-05-07 12:13 | 50.44382 | 8.48849 | 21492 ft | 407 kts | 18° |
| 2026-05-07 12:13 | 50.47065 | 8.50322 | 21959 ft | 410 kts | 18° |
| 2026-05-07 12:13 | 50.49787 | 8.51754 | 22436 ft | 413 kts | 16° |
| 2026-05-07 12:14 | 50.52544 | 8.53100 | 22899 ft | 416 kts | 16° |
| 2026-05-07 12:14 | 50.55328 | 8.54401 | 23328 ft | 419 kts | 15° |
| 2026-05-07 12:14 | 50.58149 | 8.55699 | 23726 ft | 423 kts | 15° |
| 2026-05-07 12:14 | 50.60982 | 8.57007 | 24068 ft | 426 kts | 16° |
| 2026-05-07 12:15 | 50.63831 | 8.58341 | 24417 ft | 428 kts | 16° |
| 2026-05-07 12:15 | 50.65723 | 8.59241 | 24649 ft | 429 kts | 17° |
| 2026-05-07 12:15 | 50.69522 | 8.61068 | 25103 ft | 432 kts | 16° |
| 2026-05-07 12:15 | 50.72410 | 8.62469 | 25442 ft | 434 kts | 16° |
| 2026-05-07 12:16 | 50.75300 | 8.63874 | 25772 ft | 435 kts | 17° |
| 2026-05-07 12:16 | 50.77217 | 8.64840 | 25985 ft | 437 kts | 19° |
| 2026-05-07 12:16 | 50.79997 | 8.66841 | 26306 ft | 439 kts | 29° |
| 2026-05-07 12:16 | 50.82539 | 8.69547 | 26617 ft | 442 kts | 39° |
| 2026-05-07 12:17 | 50.85428 | 8.74101 | 27025 ft | 444 kts | 51° |
| 2026-05-07 12:17 | 50.86701 | 8.76732 | 27230 ft | 446 kts | 52° |
| 2026-05-07 12:17 | 50.88577 | 8.80646 | 27532 ft | 447 kts | 52° |
| 2026-05-07 12:17 | 50.90447 | 8.84541 | 27824 ft | 449 kts | 52° |
| 2026-05-07 12:18 | 50.92343 | 8.88499 | 28099 ft | 451 kts | 52° |
| 2026-05-07 12:18 | 50.94238 | 8.92467 | 28373 ft | 452 kts | 52° |
| 2026-05-07 12:18 | 50.96143 | 8.96463 | 28631 ft | 454 kts | 53° |
| 2026-05-07 12:18 | 50.98047 | 9.00466 | 28881 ft | 455 kts | 53° |
| 2026-05-07 12:19 | 50.99959 | 9.04489 | 29128 ft | 456 kts | 53° |
| 2026-05-07 12:19 | 51.01871 | 9.08516 | 29447 ft | 456 kts | 53° |
| 2026-05-07 12:19 | 51.03774 | 9.12529 | 29802 ft | 455 kts | 53° |
| 2026-05-07 12:19 | 51.05672 | 9.16542 | 30128 ft | 454 kts | 53° |
| 2026-05-07 12:20 | 51.07574 | 9.20469 | 30404 ft | 453 kts | 49° |
| 2026-05-07 12:20 | 51.09797 | 9.24008 | 30668 ft | 453 kts | 40° |
| 2026-05-07 12:20 | 51.12353 | 9.26929 | 30928 ft | 452 kts | 30° |
| 2026-05-07 12:20 | 51.15167 | 9.29146 | 31185 ft | 451 kts | 20° |
| 2026-05-07 12:21 | 51.18172 | 9.30602 | 31446 ft | 451 kts | 12° |
| 2026-05-07 12:21 | 51.21245 | 9.31643 | 31711 ft | 451 kts | 12° |
| 2026-05-07 12:21 | 51.24318 | 9.32700 | 31888 ft | 453 kts | 12° |
| 2026-05-07 12:21 | 51.27398 | 9.33770 | 32147 ft | 453 kts | 12° |
| 2026-05-07 12:22 | 51.30448 | 9.34833 | 32420 ft | 453 kts | 12° |
| 2026-05-07 12:22 | 51.33524 | 9.35910 | 32735 ft | 452 kts | 12° |
| 2026-05-07 12:22 | 51.36598 | 9.36990 | 32988 ft | 452 kts | 12° |
| 2026-05-07 12:23 | 51.42738 | 9.39138 | 33032 ft | 450 kts | 11° |
| 2026-05-07 12:23 | 51.48866 | 9.41272 | 33030 ft | 450 kts | 12° |
| 2026-05-07 12:24 | 51.54997 | 9.43413 | 33033 ft | 450 kts | 12° |
| 2026-05-07 12:24 | 51.61089 | 9.45553 | 33037 ft | 450 kts | 12° |
| 2026-05-07 12:25 | 51.67208 | 9.47714 | 33040 ft | 450 kts | 11° |
| 2026-05-07 12:25 | 51.73324 | 9.49892 | 33048 ft | 449 kts | 12° |
| 2026-05-07 12:26 | 51.79391 | 9.52038 | 33051 ft | 449 kts | 11° |
| 2026-05-07 12:26 | 51.85296 | 9.55219 | 33057 ft | 450 kts | 26° |
| 2026-05-07 12:27 | 51.90872 | 9.59866 | 33053 ft | 450 kts | 27° |
| 2026-05-07 12:27 | 51.96416 | 9.64466 | 33054 ft | 450 kts | 26° |
| 2026-05-07 12:28 | 52.01991 | 9.69085 | 33064 ft | 450 kts | 26° |
| 2026-05-07 12:28 | 52.07559 | 9.73712 | 33062 ft | 450 kts | 26° |
| 2026-05-07 12:29 | 52.13128 | 9.78370 | 33065 ft | 449 kts | 27° |
| 2026-05-07 12:29 | 52.18668 | 9.83024 | 33070 ft | 448 kts | 27° |
| 2026-05-07 12:30 | 52.24275 | 9.87447 | 33072 ft | 447 kts | 19° |
| 2026-05-07 12:30 | 52.30333 | 9.89559 | 33077 ft | 446 kts | 7° |
| 2026-05-07 12:31 | 52.36450 | 9.90855 | 33080 ft | 446 kts | 7° |
| 2026-05-07 12:31 | 52.42583 | 9.92173 | 32912 ft | 439 kts | 7° |
| 2026-05-07 12:31 | 52.45577 | 9.92825 | 32652 ft | 427 kts | 7° |
| 2026-05-07 12:32 | 52.48480 | 9.93460 | 32477 ft | 415 kts | 7° |
| 2026-05-07 12:32 | 52.51323 | 9.94080 | 32103 ft | 409 kts | 7° |
| 2026-05-07 12:32 | 52.54126 | 9.94689 | 31653 ft | 404 kts | 7° |
| 2026-05-07 12:32 | 52.56900 | 9.95297 | 30994 ft | 398 kts | 7° |
| 2026-05-07 12:33 | 52.62301 | 9.96486 | 29284 ft | 390 kts | 7° |
| 2026-05-07 12:33 | 52.64981 | 9.97078 | 28427 ft | 386 kts | 6° |
| 2026-05-07 12:33 | 52.67636 | 9.97664 | 27589 ft | 382 kts | 6° |
| 2026-05-07 12:34 | 52.70266 | 9.98246 | 26771 ft | 379 kts | 6° |
| 2026-05-07 12:34 | 52.72865 | 9.98822 | 25999 ft | 374 kts | 7° |
| 2026-05-07 12:34 | 52.75436 | 9.99391 | 25221 ft | 371 kts | 6° |
| 2026-05-07 12:34 | 52.77992 | 9.99957 | 24474 ft | 367 kts | 7° |
| 2026-05-07 12:35 | 52.80480 | 10.00511 | 23745 ft | 364 kts | 7° |
| 2026-05-07 12:35 | 52.82980 | 10.01069 | 22911 ft | 361 kts | 6° |
| 2026-05-07 12:35 | 52.85457 | 10.01619 | 22124 ft | 357 kts | 6° |
| 2026-05-07 12:35 | 52.87897 | 10.02158 | 21464 ft | 351 kts | 6° |
| 2026-05-07 12:36 | 52.90290 | 10.02693 | 20953 ft | 341 kts | 6° |
| 2026-05-07 12:36 | 52.92519 | 10.03194 | 20517 ft | 332 kts | 6° |
| 2026-05-07 12:36 | 52.93384 | 10.03389 | 20349 ft | 328 kts | 6° |
| 2026-05-07 12:36 | 52.95617 | 10.03891 | 19911 ft | 321 kts | 6° |
| 2026-05-07 12:37 | 52.97831 | 10.04386 | 19493 ft | 321 kts | 7° |
| 2026-05-07 12:37 | 53.00049 | 10.04879 | 19076 ft | 322 kts | 6° |
| 2026-05-07 12:37 | 53.02240 | 10.05366 | 18684 ft | 322 kts | 6° |
| 2026-05-07 12:37 | 53.04498 | 10.05868 | 18267 ft | 324 kts | 6° |
| 2026-05-07 12:38 | 53.06735 | 10.06366 | 17832 ft | 325 kts | 6° |
| 2026-05-07 12:38 | 53.08968 | 10.06869 | 17429 ft | 323 kts | 6° |
| 2026-05-07 12:38 | 53.11194 | 10.07372 | 17020 ft | 322 kts | 6° |
| 2026-05-07 12:38 | 53.13413 | 10.07874 | 16602 ft | 322 kts | 7° |
| 2026-05-07 12:39 | 53.15631 | 10.08378 | 16184 ft | 321 kts | 6° |
| 2026-05-07 12:39 | 53.17847 | 10.08880 | 15831 ft | 319 kts | 6° |
| 2026-05-07 12:39 | 53.20051 | 10.09376 | 15425 ft | 318 kts | 6° |
| 2026-05-07 12:39 | 53.22199 | 10.09859 | 15147 ft | 314 kts | 7° |
| 2026-05-07 12:40 | 53.24359 | 10.10348 | 14761 ft | 313 kts | 7° |
| 2026-05-07 12:40 | 53.26516 | 10.10836 | 14422 ft | 311 kts | 7° |
| 2026-05-07 12:40 | 53.28654 | 10.11323 | 14083 ft | 309 kts | 7° |
| 2026-05-07 12:40 | 53.30766 | 10.11806 | 13492 ft | 305 kts | 7° |
| 2026-05-07 12:41 | 53.32861 | 10.12284 | 12801 ft | 302 kts | 7° |
| 2026-05-07 12:41 | 53.34937 | 10.12755 | 12131 ft | 300 kts | 7° |
| 2026-05-07 12:41 | 53.36994 | 10.12933 | 11604 ft | 293 kts | 355° |
| 2026-05-07 12:41 | 53.39004 | 10.12283 | 11139 ft | 296 kts | 342° |
| 2026-05-07 12:42 | 53.40867 | 10.10826 | 10783 ft | 294 kts | 328° |
| 2026-05-07 12:42 | 53.42448 | 10.08694 | 10585 ft | 292 kts | 314° |
| 2026-05-07 12:42 | 53.43817 | 10.06180 | 10371 ft | 291 kts | 313° |
| 2026-05-07 12:42 | 53.45173 | 10.03669 | 10126 ft | 290 kts | 313° |
| 2026-05-07 12:43 | 53.46526 | 10.01166 | 9865 ft | 288 kts | 313° |
| 2026-05-07 12:43 | 53.47824 | 9.98739 | 9720 ft | 278 kts | 310° |
| 2026-05-07 12:43 | 53.48698 | 9.95949 | 9584 ft | 268 kts | 283° |
| 2026-05-07 12:43 | 53.48722 | 9.92895 | 9384 ft | 260 kts | 255° |
| 2026-05-07 12:44 | 53.47946 | 9.90215 | 9279 ft | 258 kts | 231° |
| 2026-05-07 12:44 | 53.46802 | 9.87876 | 9104 ft | 260 kts | 229° |
| 2026-05-07 12:44 | 53.45647 | 9.85557 | 8914 ft | 258 kts | 229° |
| 2026-05-07 12:44 | 53.44488 | 9.83242 | 8750 ft | 259 kts | 229° |
| 2026-05-07 12:45 | 53.43335 | 9.80945 | 8573 ft | 256 kts | 229° |
| 2026-05-07 12:45 | 53.42183 | 9.78654 | 8440 ft | 258 kts | 229° |
| 2026-05-07 12:45 | 53.41030 | 9.76352 | 8225 ft | 257 kts | 229° |
| 2026-05-07 12:45 | 53.39894 | 9.74081 | 7932 ft | 252 kts | 229° |
| 2026-05-07 12:46 | 53.38786 | 9.71859 | 7688 ft | 246 kts | 229° |
| 2026-05-07 12:46 | 53.37692 | 9.69672 | 7397 ft | 243 kts | 229° |
| 2026-05-07 12:46 | 53.36608 | 9.67510 | 7075 ft | 243 kts | 229° |
| 2026-05-07 12:46 | 53.35490 | 9.65284 | 6837 ft | 253 kts | 229° |
| 2026-05-07 12:47 | 53.34584 | 9.62777 | 6623 ft | 254 kts | 255° |
| 2026-05-07 12:47 | 53.34500 | 9.59867 | 6400 ft | 251 kts | 286° |
| 2026-05-07 12:47 | 53.35242 | 9.57289 | 6165 ft | 246 kts | 312° |
| 2026-05-07 12:47 | 53.36502 | 9.55423 | 5893 ft | 240 kts | 335° |
| 2026-05-07 12:48 | 53.38044 | 9.54477 | 5638 ft | 234 kts | 356° |
| 2026-05-07 12:48 | 53.39637 | 9.54512 | 5375 ft | 227 kts | 16° |
| 2026-05-07 12:48 | 53.41088 | 9.55447 | 5122 ft | 222 kts | 36° |
| 2026-05-07 12:48 | 53.42242 | 9.57120 | 4868 ft | 219 kts | 52° |
| 2026-05-07 12:49 | 53.43222 | 9.59076 | 4603 ft | 218 kts | 52° |
| 2026-05-07 12:49 | 53.44190 | 9.61002 | 4347 ft | 214 kts | 52° |
| 2026-05-07 12:49 | 53.45139 | 9.62892 | 4107 ft | 208 kts | 51° |
| 2026-05-07 12:49 | 53.46039 | 9.64683 | 4105 ft | 195 kts | 52° |
| 2026-05-07 12:50 | 53.46884 | 9.66369 | 4093 ft | 182 kts | 52° |
| 2026-05-07 12:50 | 53.47692 | 9.67983 | 3888 ft | 180 kts | 51° |
| 2026-05-07 12:50 | 53.48491 | 9.69580 | 3645 ft | 177 kts | 51° |
| 2026-05-07 12:50 | 53.49281 | 9.71159 | 3412 ft | 175 kts | 51° |
| 2026-05-07 12:51 | 53.50064 | 9.72726 | 3180 ft | 174 kts | 51° |
| 2026-05-07 12:51 | 53.50822 | 9.74244 | 3045 ft | 168 kts | 52° |
| 2026-05-07 12:51 | 53.51585 | 9.75771 | 3025 ft | 176 kts | 51° |
| 2026-05-07 12:51 | 53.52359 | 9.77322 | 2959 ft | 171 kts | 51° |
| 2026-05-07 12:52 | 53.53120 | 9.78847 | 2824 ft | 170 kts | 51° |
| 2026-05-07 12:52 | 53.53879 | 9.80371 | 2576 ft | 167 kts | 52° |
| 2026-05-07 12:52 | 53.54611 | 9.81839 | 2360 ft | 159 kts | 52° |
| 2026-05-07 12:52 | 53.55292 | 9.83206 | 2151 ft | 147 kts | 51° |
| 2026-05-07 12:53 | 53.55919 | 9.84467 | 1949 ft | 139 kts | 51° |
| 2026-05-07 12:53 | 53.56529 | 9.85695 | 1769 ft | 136 kts | 52° |
| 2026-05-07 12:53 | 53.57128 | 9.86900 | 1577 ft | 133 kts | 52° |
| 2026-05-07 12:53 | 53.57727 | 9.88106 | 1405 ft | 133 kts | 52° |
| 2026-05-07 12:54 | 53.58317 | 9.89294 | 1213 ft | 134 kts | 51° |
| 2026-05-07 12:54 | 53.58913 | 9.90495 | 1030 ft | 135 kts | 52° |
| 2026-05-07 12:54 | 53.59506 | 9.91691 | 845 ft | 133 kts | 51° |
| 2026-05-07 12:54 | 53.60099 | 9.92887 | 659 ft | 136 kts | 53° |
| 2026-05-07 12:55 | 53.60696 | 9.94092 | 475 ft | 133 kts | 54° |
| 2026-05-07 12:55 | 53.61292 | 9.95294 | 310 ft | 135 kts | 55° |
| 2026-05-07 12:55 | 53.61886 | 9.96494 | 120 ft | 133 kts | 53° |
| 2026-05-07 12:55 | 53.62456 | 9.97647 | 42 ft | 114 kts | 50° |
| 2026-05-07 12:56 | 53.62849 | 9.98441 | 45 ft | 68 kts | 51° |
| 2026-05-07 12:56 | 53.63122 | 9.98991 | 46 ft | 57 kts | 50° |
| 2026-05-07 12:56 | 53.63312 | 9.99411 | 46 ft | 21 kts | 85° |
| 2026-05-07 12:56 | 53.63286 | 9.99607 | 44 ft | 7 kts | 100° |
| 2026-05-07 12:57 | 53.63285 | 9.99621 | 44 ft | 0 kts | 101° |
| 2026-05-07 12:58 | 53.63279 | 9.99666 | 45 ft | 11 kts | 106° |
| 2026-05-07 12:58 | 53.63216 | 9.99767 | 45 ft | 18 kts | 152° |
| 2026-05-07 12:59 | 53.63110 | 9.99894 | 45 ft | 13 kts | 104° |
| 2026-05-07 12:59 | 53.63144 | 9.99965 | 45 ft | 11 kts | 44° |
| 2026-05-07 12:59 | 53.63207 | 10.00072 | 45 ft | 14 kts | 49° |
| 2026-05-07 12:59 | 53.63192 | 10.00161 | 45 ft | 9 kts | 143° |
| 2026-05-07 13:00 | 53.63141 | 10.00193 | 45 ft | 7 kts | 164° |
| 2026-05-07 13:00 | 53.63097 | 10.00238 | 44 ft | 9 kts | 129° |
| 2026-05-07 13:00 | 53.63084 | 10.00348 | 44 ft | 10 kts | 98° |
| 2026-05-07 13:00 | 53.63077 | 10.00397 | 46 ft | 0 kts | 101° |